createdAt,value
2023-05-06T00:03:57.484Z,1.50
2023-05-06T00:09:02.529Z,1.00
2023-05-06T00:14:07.368Z,0.75
2023-05-06T00:19:12.768Z,1.00
2023-05-06T00:24:17.434Z,0.50
2023-05-06T00:29:22.479Z,0.75
2023-05-06T00:34:27.781Z,0.00
2023-05-06T00:39:32.968Z,0.00
2023-05-06T00:44:37.928Z,2.00
2023-05-06T00:49:42.629Z,1.00
2023-05-06T00:54:47.552Z,0.00
2023-05-06T00:59:52.487Z,1.00
2023-05-06T01:04:57.670Z,0.00
2023-05-06T01:10:10.243Z,1.00
2023-05-06T01:15:14.988Z,1.75
2023-05-06T01:20:22.635Z,1.00
2023-05-06T01:25:27.303Z,1.00
2023-05-06T01:30:37.982Z,2.00
2023-05-06T01:35:48.807Z,1.75
2023-05-06T01:40:55.848Z,4.00
2023-05-06T01:46:02.342Z,3.75
2023-05-06T01:51:08.425Z,3.00
2023-05-06T01:56:13.067Z,2.75
2023-05-06T02:01:17.913Z,2.00
2023-05-06T02:06:22.949Z,3.00
2023-05-06T02:11:27.886Z,1.50
2023-05-06T02:16:39.659Z,5.00
2023-05-06T02:21:44.834Z,4.25
2023-05-06T02:26:49.624Z,2.75
2023-05-06T02:31:54.895Z,5.00
2023-05-06T02:37:00.152Z,5.00
2023-05-06T02:42:05.269Z,4.50
2023-05-06T02:47:10.255Z,3.50
2023-05-06T02:52:15.349Z,2.75
2023-05-06T02:57:20.195Z,6.00
2023-05-06T03:02:25.246Z,3.00
2023-05-06T03:07:30.117Z,3.75
2023-05-06T03:12:35.464Z,1.75
2023-05-06T03:17:40.636Z,7.00
2023-05-06T03:22:46.770Z,5.25
2023-05-06T03:27:51.831Z,4.25
2023-05-06T03:33:02.925Z,4.25
2023-05-06T03:38:10.325Z,5.00
2023-05-06T03:43:25.174Z,10.25
2023-05-06T03:48:34.541Z,7.75
2023-05-06T03:53:42.356Z,6.75
2023-05-06T03:58:47.382Z,7.50
2023-05-06T04:03:53.470Z,6.00
2023-05-06T04:08:59.645Z,3.25
2023-05-06T04:14:04.895Z,5.00
2023-05-06T04:19:10.887Z,5.00
2023-05-06T04:24:18.803Z,4.00
2023-05-06T04:29:23.813Z,4.25
2023-05-06T04:34:37.855Z,4.00
2023-05-06T04:39:48.314Z,6.75
2023-05-06T04:44:53.797Z,5.75
2023-05-06T04:50:04.116Z,4.50
2023-05-06T04:55:09.704Z,4.25
2023-05-06T05:00:19.442Z,3.25
2023-05-06T05:05:25.663Z,2.75
2023-05-06T05:10:31.328Z,3.25
2023-05-06T05:15:36.766Z,2.75
2023-05-06T05:20:42.858Z,3.75
2023-05-06T05:25:50.160Z,5.25
2023-05-06T05:30:55.854Z,4.00
2023-05-06T05:36:01.367Z,3.00
2023-05-06T05:41:07.823Z,4.00
2023-05-06T05:46:12.988Z,3.25
2023-05-06T05:51:20.028Z,4.00
2023-05-06T05:56:26.563Z,2.75
2023-05-06T06:01:31.451Z,3.50
2023-05-06T06:06:36.703Z,6.00
2023-05-06T06:11:42.548Z,4.25
2023-05-06T06:16:48.338Z,1.00
2023-05-06T06:21:55.020Z,3.25
2023-05-06T06:27:00.109Z,3.00
2023-05-06T06:32:05.560Z,2.75
2023-05-06T06:37:14.117Z,3.00
2023-05-06T06:42:19.033Z,3.25
2023-05-06T06:47:33.723Z,3.00
2023-05-06T06:52:38.616Z,2.75
2023-05-06T06:57:43.932Z,3.25
2023-05-06T07:02:50.870Z,4.25
2023-05-06T07:07:56.686Z,1.50
2023-05-06T07:13:01.725Z,4.75
2023-05-06T07:18:06.709Z,4.50
2023-05-06T07:23:11.804Z,3.00
2023-05-06T07:28:16.969Z,3.00
2023-05-06T07:33:21.654Z,4.00
2023-05-06T07:38:26.895Z,5.75
2023-05-06T07:43:31.747Z,4.50
2023-05-06T07:48:36.628Z,4.50
2023-05-06T07:53:41.802Z,9.25
2023-05-06T07:58:46.520Z,8.50
2023-05-06T08:03:51.312Z,5.25
2023-05-06T08:08:56.115Z,14.00
2023-05-06T08:14:00.724Z,12.00
2023-05-06T08:19:05.407Z,8.50
2023-05-06T08:24:11.851Z,9.75
2023-05-06T08:29:16.589Z,7.25
2023-05-06T08:34:22.667Z,10.00
2023-05-06T08:39:29.375Z,7.00
2023-05-06T08:44:34.914Z,12.25
2023-05-06T08:49:40.180Z,12.75
2023-05-06T08:54:45.879Z,17.50
2023-05-06T08:59:50.669Z,16.00
2023-05-06T09:04:55.988Z,17.50
2023-05-06T09:10:00.667Z,14.25
2023-05-06T09:15:05.821Z,11.50
2023-05-06T09:20:13.654Z,11.50
2023-05-06T09:25:19.227Z,11.50
2023-05-06T09:30:23.878Z,11.50
2023-05-06T09:35:37.501Z,9.00
2023-05-06T09:40:42.470Z,12.50
2023-05-06T09:45:47.805Z,10.75
2023-05-06T09:50:53.951Z,29.00
2023-05-06T09:56:00.623Z,38.25
2023-05-06T10:01:06.708Z,44.75
2023-05-06T10:06:13.364Z,44.00
2023-05-06T10:11:19.216Z,41.50
2023-05-06T10:16:24.558Z,43.75
2023-05-06T10:21:30.420Z,45.75
2023-05-06T10:26:38.198Z,50.75
2023-05-06T10:31:51.047Z,48.00
2023-05-06T10:36:59.096Z,44.50
2023-05-06T10:42:04.253Z,42.75
2023-05-06T10:47:10.372Z,42.50
2023-05-06T10:52:15.630Z,39.00
2023-05-06T10:57:22.133Z,40.50
2023-05-06T11:02:26.671Z,41.50
2023-05-06T11:07:31.341Z,43.00
2023-05-06T11:12:55.078Z,42.25
2023-05-06T11:18:02.116Z,42.50
2023-05-06T11:23:07.523Z,40.75
2023-05-06T11:28:15.707Z,39.50
2023-05-06T11:33:21.111Z,42.00
2023-05-06T11:38:25.897Z,38.50
2023-05-06T11:43:31.603Z,39.50
2023-05-06T11:48:37.051Z,36.50
2023-05-06T11:53:41.354Z,38.75
2023-05-06T11:58:45.864Z,32.25
2023-05-06T12:03:50.332Z,32.25
2023-05-06T12:08:54.873Z,33.00
2023-05-06T12:13:59.667Z,29.50
2023-05-06T12:19:05.100Z,33.00
2023-05-06T12:24:09.674Z,31.50
2023-05-06T12:29:16.866Z,30.75
2023-05-06T12:34:38.572Z,29.00
2023-05-06T12:39:47.389Z,30.75
2023-05-06T12:44:53.256Z,28.00
2023-05-06T12:50:02.169Z,22.00
2023-05-06T12:55:07.362Z,27.25
2023-05-06T13:00:13.700Z,24.75
2023-05-06T13:05:19.085Z,23.00
2023-05-06T13:10:24.019Z,24.50
2023-05-06T13:15:29.498Z,18.75
2023-05-06T13:20:34.649Z,29.25
2023-05-06T13:25:51.701Z,23.50
2023-05-06T13:31:01.475Z,21.25
2023-05-06T13:36:07.369Z,22.75
2023-05-06T13:41:12.590Z,24.25
2023-05-06T13:46:17.787Z,24.75
2023-05-06T13:51:22.953Z,16.00
2023-05-06T13:56:27.936Z,17.75
2023-05-06T14:01:33.046Z,16.50
2023-05-06T14:06:40.700Z,16.00
2023-05-06T14:11:45.971Z,14.75
2023-05-06T14:16:54.044Z,16.00
2023-05-06T14:22:00.627Z,13.50
2023-05-06T14:27:06.905Z,12.00
2023-05-06T14:32:12.159Z,15.50
2023-05-06T14:37:17.289Z,13.25
2023-05-06T14:42:22.181Z,12.25
2023-05-06T14:47:28.572Z,10.25
2023-05-06T14:52:33.804Z,9.00
2023-05-06T14:57:38.804Z,10.25
2023-05-06T15:02:44.216Z,8.25
2023-05-06T15:07:49.530Z,8.25
2023-05-06T15:12:54.906Z,9.25
2023-05-06T15:18:00.168Z,7.75
2023-05-06T15:23:05.491Z,4.75
2023-05-06T15:28:10.480Z,4.25
2023-05-06T15:33:15.522Z,4.50
2023-05-06T15:38:22.304Z,4.00
2023-05-06T15:43:37.480Z,6.75
2023-05-06T15:48:43.809Z,5.25
2023-05-06T15:53:49.414Z,4.50
2023-05-06T15:58:54.622Z,2.50
2023-05-06T16:03:59.675Z,3.75
2023-05-06T16:09:04.703Z,3.00
2023-05-06T16:14:09.628Z,4.75
2023-05-06T16:19:14.468Z,4.00
2023-05-06T16:24:19.394Z,3.75
2023-05-06T16:29:24.134Z,3.00
2023-05-06T16:34:29.117Z,6.00
2023-05-06T16:39:33.752Z,4.00
2023-05-06T16:44:38.569Z,4.00
2023-05-06T16:49:44.039Z,7.00
2023-05-06T16:54:48.811Z,3.25
2023-05-06T16:59:53.819Z,4.00
2023-05-06T17:04:58.716Z,6.00
2023-05-06T17:10:03.546Z,4.00
2023-05-06T17:15:08.731Z,3.25
2023-05-06T17:20:13.882Z,3.75
2023-05-06T17:25:18.788Z,4.50
2023-05-06T17:30:24.261Z,2.25
2023-05-06T17:35:29.362Z,4.50
2023-05-06T17:40:34.344Z,3.25
2023-05-06T17:45:39.189Z,2.00
2023-05-06T17:50:44.420Z,2.75
2023-05-06T17:55:50.002Z,4.50
2023-05-06T18:00:54.813Z,5.00
2023-05-06T18:05:59.952Z,3.50
2023-05-06T18:11:04.761Z,4.00
2023-05-06T18:16:09.673Z,5.25
2023-05-06T18:21:14.772Z,3.75
2023-05-06T18:26:35.863Z,3.00
2023-05-06T18:31:45.127Z,2.25
2023-05-06T18:36:49.970Z,1.00
2023-05-06T18:41:54.733Z,2.75
2023-05-06T18:46:59.731Z,3.25
2023-05-06T18:52:04.954Z,5.50
2023-05-06T18:57:10.429Z,2.50
2023-05-06T19:02:15.639Z,1.25
2023-05-06T19:07:20.816Z,1.50
2023-05-06T19:12:25.725Z,2.50
2023-05-06T19:17:31.027Z,1.75
2023-05-06T19:22:35.966Z,1.75
2023-05-06T19:27:40.844Z,2.00
2023-05-06T19:32:45.747Z,4.50
2023-05-06T19:37:50.624Z,2.00
2023-05-06T19:42:56.235Z,2.50
2023-05-06T19:48:07.370Z,2.00
2023-05-06T19:53:12.593Z,1.50
2023-05-06T19:58:18.629Z,2.25
2023-05-06T20:03:23.592Z,1.00
2023-05-06T20:08:28.720Z,1.00
2023-05-06T20:13:34.161Z,2.50
2023-05-06T20:18:39.072Z,1.00
2023-05-06T20:23:43.913Z,2.25
2023-05-06T20:28:48.888Z,3.00
2023-05-06T20:33:53.739Z,2.00
2023-05-06T20:38:58.515Z,1.50
2023-05-06T20:44:03.498Z,2.00
2023-05-06T20:49:09.428Z,1.00
2023-05-06T20:54:14.526Z,1.00
2023-05-06T20:59:19.610Z,3.25
2023-05-06T21:04:24.789Z,2.00
2023-05-06T21:09:30.064Z,2.00
2023-05-06T21:14:34.984Z,2.00
2023-05-06T21:19:40.899Z,2.00
2023-05-06T21:24:45.893Z,2.50
2023-05-06T21:29:51.414Z,4.50
2023-05-06T21:34:56.114Z,2.00
2023-05-06T21:40:04.070Z,3.75
2023-05-06T21:45:09.327Z,3.00
2023-05-06T21:50:14.538Z,1.50
2023-05-06T21:55:20.611Z,1.00
2023-05-06T22:00:25.206Z,3.75
2023-05-06T22:05:29.862Z,13.75
2023-05-06T22:10:34.603Z,8.00
2023-05-06T22:15:39.585Z,4.50
2023-05-06T22:20:44.614Z,3.25
2023-05-06T22:25:49.529Z,4.25
2023-05-06T22:30:54.322Z,5.50
2023-05-06T22:35:59.019Z,3.00
2023-05-06T22:41:03.641Z,4.75
2023-05-06T22:46:08.416Z,6.75
2023-05-06T22:51:13.652Z,4.00
2023-05-06T22:56:20.677Z,5.00
2023-05-06T23:01:27.331Z,3.50
2023-05-06T23:06:34.734Z,4.50
2023-05-06T23:11:39.716Z,4.25
2023-05-06T23:16:44.684Z,4.00
2023-05-06T23:21:49.726Z,4.00
2023-05-06T23:26:55.518Z,5.75
2023-05-06T23:32:00.576Z,8.00
2023-05-06T23:37:05.585Z,11.50
2023-05-06T23:42:10.654Z,10.75
2023-05-06T23:47:15.542Z,9.00
2023-05-06T23:52:20.375Z,8.00
2023-05-06T23:57:25.267Z,7.25
